Time;durP1;ratioP1;P1;durP2;ratioP2;P2;SDS_P1;SDS_P2;PMS_P1;PMS_P2;Temp;Humidity;BMP_temperature;BMP_pressure;BME280_temperature;BME280_humidity;BME280_pressure;Samples;Min_cycle;Max_cycle;Signal;HPM_P1;HPM_P2
2021/04/16 00:00:35;;;;;;;;;;;;;;;20.84;47.91;102079.16;2084172;28;4041;-36
2021/04/16 00:01:36;;;;;;;;;;;;;;;20.83;47.75;102071.75;2084736;28;4054;-34
2021/04/16 00:02:37;;;;;;;;;;;;;;;20.84;47.89;102075.44;2083845;28;3886;-32
2021/04/16 00:03:38;;;;;;;;;;;;;;;20.84;47.93;102067.78;2084887;28;4111;-32
2021/04/16 00:04:40;;;;;;;;;;;;;;;20.84;47.82;102072.59;2084131;28;3950;-31
2021/04/16 00:05:41;;;;;;;;;;;;;;;20.84;47.73;102067.78;2083788;28;3884;-30
2021/04/16 00:06:42;;;;;;;;;;;;;;;20.85;47.96;102080.00;2084712;28;4068;-30
2021/04/16 00:07:43;;;;;;;;;;;;;;;20.85;47.84;102071.47;2082864;28;3928;-30
2021/04/16 00:08:43;;;;;;;;;;;;;;;20.84;47.81;102066.91;2086038;28;4061;-31
2021/04/16 00:09:44;;;;;;;;;;;;;;;20.84;47.85;102072.59;2086389;28;4060;-32
2021/04/16 00:10:45;;;;;;;;;;;;;;;20.84;47.75;102062.09;2085930;28;3876;-33
2021/04/16 00:11:45;;;;;;;;;;;;;;;20.85;47.75;102069.44;2084978;28;3869;-32
2021/04/16 00:12:46;;;;;;;;;;;;;;;20.84;47.77;102066.91;2086808;28;4049;-31
2021/04/16 00:13:47;;;;;;;;;;;;;;;20.84;47.87;102061.22;2085441;28;3930;-30
2021/04/16 00:14:48;;;;;;;;;;;;;;;20.85;47.80;102062.94;2084139;28;4044;-32
2021/04/16 00:15:49;;;;;;;;;;;;;;;20.86;47.80;102067.44;2085202;28;4035;-31
2021/04/16 00:16:50;;;;;;;;;;;;;;;20.85;47.82;102068.63;2086835;28;4093;-37
2021/04/16 00:17:51;;;;;;;;;;;;;;;20.85;47.90;102063.75;2086836;28;4018;-31
2021/04/16 00:18:52;;;;;;;;;;;;;;;20.85;47.90;102062.94;2085067;28;3830;-32
2021/04/16 00:19:53;;;;;;;;;;;;;;;20.85;47.91;102060.06;2086649;28;4258;-32
2021/04/16 00:20:54;;;;;;;;;;;;;;;20.84;47.92;102056.41;2084805;28;4199;-31
2021/04/16 00:21:55;;;;;;;;;;;;;;;20.84;47.78;102059.25;2085848;28;3977;-34
2021/04/16 00:22:55;;;;;;;;;;;;;;;20.85;47.82;102058.06;2086438;28;3860;-34
2021/04/16 00:23:56;;;;;;;;;;;;;;;20.85;47.94;102057.25;2084673;28;3886;-32
2021/04/16 00:24:57;;;;;;;;;;;;;;;20.84;47.85;102062.09;2084929;28;4083;-35
2021/04/16 00:25:58;;;;;;;;;;;;;;;20.85;47.82;102058.06;2084275;28;4041;-33
2021/04/16 00:26:58;;;;;;;;;;;;;;;20.85;47.92;102055.22;2085061;28;3866;-31
2021/04/16 00:27:59;;;;;;;;;;;;;;;20.86;47.77;102050.38;2084216;28;3897;-31
2021/04/16 00:29:00;;;;;;;;;;;;;;;20.85;47.84;102046.69;2085264;28;3934;-30
2021/04/16 00:30:01;;;;;;;;;;;;;;;20.86;47.87;102047.53;2084813;28;4035;-35
2021/04/16 00:31:02;;;;;;;;;;;;;;;20.86;47.87;102051.22;2086445;28;3883;-31
2021/04/16 00:32:02;;;;;;;;;;;;;;;20.87;47.82;102052.06;2086331;28;4042;-36
2021/04/16 00:33:03;;;;;;;;;;;;;;;20.87;47.93;102052.91;2085974;28;3861;-31
2021/04/16 00:34:04;;;;;;;;;;;;;;;20.87;47.95;102049.22;2086150;28;3848;-33
2021/04/16 00:35:05;;;;;;;;;;;;;;;20.86;47.98;102051.22;2085283;28;4028;-31
2021/04/16 00:36:06;;;;;;;;;;;;;;;20.87;47.90;102046.38;2086460;28;4026;-37
2021/04/16 00:37:06;;;;;;;;;;;;;;;20.87;47.89;102043.53;2086149;28;3863;-30
2021/04/16 00:38:07;;;;;;;;;;;;;;;20.87;47.85;102041.53;2085411;28;3921;-31
2021/04/16 00:39:08;;;;;;;;;;;;;;;20.87;47.92;102040.69;2085309;28;4188;-34
2021/04/16 00:40:09;;;;;;;;;;;;;;;20.87;47.92;102043.53;2084910;28;4035;-32
2021/04/16 00:41:09;;;;;;;;;;;;;;;20.87;47.98;102050.06;2085518;28;3983;-35
2021/04/16 00:42:10;;;;;;;;;;;;;;;20.86;47.95;102036.97;2084996;28;3867;-32
2021/04/16 00:43:11;;;;;;;;;;;;;;;20.87;47.94;102052.91;2085685;28;3979;-33
2021/04/16 00:44:12;;;;;;;;;;;;;;;20.87;47.89;102037.84;2086531;28;4015;-34
2021/04/16 00:45:12;;;;;;;;;;;;;;;20.87;47.92;102044.38;2085628;28;4026;-32
2021/04/16 00:46:13;;;;;;;;;;;;;;;20.87;47.85;102041.53;2083470;28;3992;-35
2021/04/16 00:47:14;;;;;;;;;;;;;;;20.88;47.91;102039.53;2086197;28;4022;-31
2021/04/16 00:48:15;;;;;;;;;;;;;;;20.88;47.93;102048.06;2085486;28;4050;-30
2021/04/16 00:49:16;;;;;;;;;;;;;;;20.87;47.97;102030.16;2085829;28;3826;-34
2021/04/16 00:50:17;;;;;;;;;;;;;;;20.88;47.85;102039.53;2084398;28;3989;-31
2021/04/16 00:51:18;;;;;;;;;;;;;;;20.87;47.95;102038.69;2085979;28;4216;-34
2021/04/16 00:52:18;;;;;;;;;;;;;;;20.87;48.01;102038.69;2083744;28;3827;-30
2021/04/16 00:53:19;;;;;;;;;;;;;;;20.87;47.96;102030.16;2084155;28;3885;-29
2021/04/16 00:54:20;;;;;;;;;;;;;;;20.88;47.96;102030.97;2085271;28;4021;-33
2021/04/16 00:55:22;;;;;;;;;;;;;;;20.87;48.15;102035.84;2084696;28;3823;-35
2021/04/16 00:56:22;;;;;;;;;;;;;;;20.87;48.05;102038.69;2085976;28;3989;-31
2021/04/16 00:57:23;;;;;;;;;;;;;;;20.88;48.13;102033.84;2085508;28;3835;-31
2021/04/16 00:58:24;;;;;;;;;;;;;;;20.87;47.99;102032.16;2085727;28;4797;-32
2021/04/16 00:59:27;;;;;;;;;;;;;;;20.88;48.13;102034.66;2085743;28;4097;-31
2021/04/16 01:00:27;;;;;;;;;;;;;;;20.88;48.08;102036.66;2085437;28;4042;-34
2021/04/16 01:01:28;;;;;;;;;;;;;;;20.88;48.11;102033.84;2085767;28;4052;-31
2021/04/16 01:02:29;;;;;;;;;;;;;;;20.87;48.11;102030.16;2086509;28;3874;-33
2021/04/16 01:03:30;;;;;;;;;;;;;;;20.88;48.12;102031.81;2086231;28;4081;-35
2021/04/16 01:04:31;;;;;;;;;;;;;;;20.88;48.01;102031.81;2086016;28;4046;-34
2021/04/16 01:05:32;;;;;;;;;;;;;;;20.88;48.02;102033.84;2085490;28;4816;-30
2021/04/16 01:06:33;;;;;;;;;;;;;;;20.89;48.24;102035.50;2085766;28;3883;-33
2021/04/16 01:07:34;;;;;;;;;;;;;;;20.88;48.04;102031.81;2085758;28;4038;-33
2021/04/16 01:08:34;;;;;;;;;;;;;;;20.88;48.02;102034.66;2086214;28;3918;-32
2021/04/16 01:09:35;;;;;;;;;;;;;;;20.88;48.04;102026.13;2085730;28;4162;-34
2021/04/16 01:10:36;;;;;;;;;;;;;;;20.88;48.15;102031.81;2084812;28;3886;-36
2021/04/16 01:11:36;;;;;;;;;;;;;;;20.90;48.05;102031.50;2085758;28;3885;-33
2021/04/16 01:12:37;;;;;;;;;;;;;;;20.89;48.24;102030.63;2085753;28;3869;-31
2021/04/16 01:13:38;;;;;;;;;;;;;;;20.89;48.24;102024.94;2085764;28;3872;-31
2021/04/16 01:14:39;;;;;;;;;;;;;;;20.89;48.08;102024.13;2085376;28;4104;-37
2021/04/16 01:15:40;;;;;;;;;;;;;;;20.91;48.03;102033.19;2085709;28;5069;-34
2021/04/16 01:16:41;;;;;;;;;;;;;;;20.90;48.22;102031.50;2085234;28;4110;-32
2021/04/16 01:17:42;;;;;;;;;;;;;;;20.90;48.25;102035.19;2085592;28;4041;-34
2021/04/16 01:18:43;;;;;;;;;;;;;;;20.91;48.10;102033.19;2086154;28;4214;-34
2021/04/16 01:19:44;;;;;;;;;;;;;;;20.90;48.21;102035.19;2085013;28;4063;-31
2021/04/16 01:20:45;;;;;;;;;;;;;;;20.91;48.20;102039.69;2082889;28;4026;-33
2021/04/16 01:21:46;;;;;;;;;;;;;;;20.90;48.29;102037.19;2085014;28;3871;-35
2021/04/16 01:22:47;;;;;;;;;;;;;;;20.91;48.29;102036.03;2085726;28;3865;-31
2021/04/16 01:23:48;;;;;;;;;;;;;;;20.91;48.16;102034.00;2085006;28;4063;-32
2021/04/16 01:24:48;;;;;;;;;;;;;;;20.91;48.20;102038.88;2082922;28;4004;-34
2021/04/16 01:25:49;;;;;;;;;;;;;;;20.90;48.16;102035.19;2084858;28;4033;-34
2021/04/16 01:26:50;;;;;;;;;;;;;;;20.90;48.19;102031.50;2085136;28;4030;-32
2021/04/16 01:27:51;;;;;;;;;;;;;;;20.91;48.33;102028.31;2084074;28;3849;-30
2021/04/16 01:28:54;;;;;;;;;;;;;;;20.91;48.26;102024.66;2084085;28;4013;-34
2021/04/16 01:29:55;;;;;;;;;;;;;;;20.90;48.25;102032.34;2084045;28;4046;-29
2021/04/16 01:30:55;;;;;;;;;;;;;;;20.91;48.29;102027.50;2084497;28;4021;-31
2021/04/16 01:31:56;;;;;;;;;;;;;;;20.91;48.28;102021.81;2085518;28;3984;-30
2021/04/16 01:32:57;;;;;;;;;;;;;;;20.91;48.31;102027.50;2084351;28;3904;-32
2021/04/16 01:33:58;;;;;;;;;;;;;;;20.91;48.21;102025.47;2081916;28;3797;-31
2021/04/16 01:34:59;;;;;;;;;;;;;;;20.91;48.20;102022.63;2085287;28;3861;-32
2021/04/16 01:36:00;;;;;;;;;;;;;;;20.91;48.17;102019.78;2085446;28;4182;-31
2021/04/16 01:37:00;;;;;;;;;;;;;;;20.92;48.34;102026.31;2084678;28;4039;-34
2021/04/16 01:38:01;;;;;;;;;;;;;;;20.92;48.30;102023.47;2083955;28;4085;-31
2021/04/16 01:39:02;;;;;;;;;;;;;;;20.91;48.27;102019.78;2084921;28;4189;-30
2021/04/16 01:40:03;;;;;;;;;;;;;;;20.91;48.25;102022.63;2084756;28;4064;-34
2021/04/16 01:41:03;;;;;;;;;;;;;;;20.91;48.19;102022.63;2084502;28;3949;-33
2021/04/16 01:42:04;;;;;;;;;;;;;;;20.92;48.16;102026.31;2085755;28;3858;-34
2021/04/16 01:43:05;;;;;;;;;;;;;;;20.91;48.38;102025.47;2083607;28;4018;-36
2021/04/16 01:44:05;;;;;;;;;;;;;;;20.92;48.32;102026.31;2084816;28;4112;-34
2021/04/16 01:45:06;;;;;;;;;;;;;;;20.91;48.25;102025.47;2084874;28;3886;-34
2021/04/16 01:46:07;;;;;;;;;;;;;;;20.92;48.27;102023.47;2084885;28;4006;-35
2021/04/16 01:47:08;;;;;;;;;;;;;;;20.91;48.25;102022.63;2084026;28;3852;-34
2021/04/16 01:48:09;;;;;;;;;;;;;;;20.91;48.41;102021.81;2084675;28;4052;-31
2021/04/16 01:49:10;;;;;;;;;;;;;;;20.91;48.37;102031.16;2084547;28;4040;-32
2021/04/16 01:50:11;;;;;;;;;;;;;;;20.92;48.42;102029.16;2084614;28;4143;-34
2021/04/16 01:51:11;;;;;;;;;;;;;;;20.92;48.29;102026.31;2083225;28;4093;-32
2021/04/16 01:52:12;;;;;;;;;;;;;;;20.93;48.39;102022.31;2083947;28;3825;-32
2021/04/16 01:53:13;;;;;;;;;;;;;;;20.93;48.39;102021.50;2084343;28;3832;-34
2021/04/16 01:54:14;;;;;;;;;;;;;;;20.92;48.46;102017.78;2084937;28;3892;-34
2021/04/16 01:55:14;;;;;;;;;;;;;;;20.93;48.27;102021.50;2084217;28;3908;-35
2021/04/16 01:56:15;;;;;;;;;;;;;;;20.92;48.48;102017.78;2084208;28;3874;-31
2021/04/16 01:57:16;;;;;;;;;;;;;;;20.93;48.49;102019.47;2085325;28;3864;-33
2021/04/16 01:58:17;;;;;;;;;;;;;;;20.91;48.34;102014.09;2084950;28;3827;-34
2021/04/16 01:59:17;;;;;;;;;;;;;;;20.92;48.49;102020.63;2085473;28;4039;-31
2021/04/16 02:00:18;;;;;;;;;;;;;;;20.91;48.44;102014.09;2084993;28;3985;-30
2021/04/16 02:01:19;;;;;;;;;;;;;;;20.93;48.34;102024.34;2085223;28;3812;-35
2021/04/16 02:02:20;;;;;;;;;;;;;;;20.93;48.40;102015.81;2084087;28;3919;-33
2021/04/16 02:03:21;;;;;;;;;;;;;;;20.91;48.36;102016.94;2085983;28;3884;-32
2021/04/16 02:04:21;;;;;;;;;;;;;;;20.93;48.41;102024.34;2085800;28;4121;-33
2021/04/16 02:05:22;;;;;;;;;;;;;;;20.93;48.57;102018.66;2085784;28;3797;-34
2021/04/16 02:06:23;;;;;;;;;;;;;;;20.93;48.57;102024.34;2084939;28;3843;-32
2021/04/16 02:07:24;;;;;;;;;;;;;;;20.93;48.52;102018.66;2084434;28;4930;-33
2021/04/16 02:08:24;;;;;;;;;;;;;;;20.94;48.51;102020.31;2084447;28;4199;-35
2021/04/16 02:09:25;;;;;;;;;;;;;;;20.92;48.42;102014.94;2085005;28;4096;-34
2021/04/16 02:10:26;;;;;;;;;;;;;;;20.91;48.39;102016.94;2085110;28;4045;-32
2021/04/16 02:11:26;;;;;;;;;;;;;;;20.93;48.60;102015.81;2085188;28;4040;-33
2021/04/16 02:12:27;;;;;;;;;;;;;;;20.94;48.50;102017.47;2083357;28;4066;-31
2021/04/16 02:13:28;;;;;;;;;;;;;;;20.95;48.51;102019.13;2085438;28;3869;-33
2021/04/16 02:14:29;;;;;;;;;;;;;;;20.91;48.50;102016.94;2083064;28;4083;-35
2021/04/16 02:15:30;;;;;;;;;;;;;;;20.93;48.49;102008.09;2085166;28;3905;-32
2021/04/16 02:16:31;;;;;;;;;;;;;;;20.93;48.54;102015.81;2086993;28;4028;-33
2021/04/16 02:17:36;;;;;;;;;;;;;;;20.93;48.66;102012.97;2083780;28;4020;-32
2021/04/16 02:18:38;;;;;;;;;;;;;;;20.95;48.57;102013.44;2084493;28;3936;-31
2021/04/16 02:19:39;;;;;;;;;;;;;;;20.94;48.68;102009.78;2084070;28;4009;-31
2021/04/16 02:20:39;;;;;;;;;;;;;;;20.94;48.78;102012.63;2083772;28;4060;-33
2021/04/16 02:21:40;;;;;;;;;;;;;;;20.94;48.67;102017.47;2085076;28;4301;-31
2021/04/16 02:22:41;;;;;;;;;;;;;;;20.94;48.78;102011.78;2084996;28;3899;-36
2021/04/16 02:23:42;;;;;;;;;;;;;;;20.94;48.71;102014.63;2084110;28;4174;-30
2021/04/16 02:24:43;;;;;;;;;;;;;;;20.94;48.83;102018.31;2083591;28;3879;-34
2021/04/16 02:25:44;;;;;;;;;;;;;;;20.94;48.94;102011.78;2085088;28;4044;-31
2021/04/16 02:26:45;;;;;;;;;;;;;;;20.95;48.84;102007.75;2083292;28;4098;-31
2021/04/16 02:27:45;;;;;;;;;;;;;;;20.95;48.75;102010.59;2083680;28;3874;-32
2021/04/16 02:28:46;;;;;;;;;;;;;;;20.95;48.84;102010.59;2083467;28;4211;-35
2021/04/16 02:29:47;;;;;;;;;;;;;;;20.95;48.90;102017.16;2084279;28;4340;-34
2021/04/16 02:30:47;;;;;;;;;;;;;;;20.96;48.91;102015.16;2083392;28;4055;-35
2021/04/16 02:31:48;;;;;;;;;;;;;;;20.95;48.87;102017.16;2085082;28;3992;-31
2021/04/16 02:32:49;;;;;;;;;;;;;;;20.95;49.02;102021.97;2084594;28;4036;-35
2021/04/16 02:33:50;;;;;;;;;;;;;;;20.95;48.95;102021.97;2084739;28;4089;-33
2021/04/16 02:34:51;;;;;;;;;;;;;;;20.95;48.88;102022.84;2084158;28;3900;-34
2021/04/16 02:35:52;;;;;;;;;;;;;;;20.96;48.96;102020.84;2084196;28;4018;-34
2021/04/16 02:36:52;;;;;;;;;;;;;;;20.95;48.93;102021.97;2084917;28;3895;-34
2021/04/16 02:37:53;;;;;;;;;;;;;;;20.96;48.99;102023.69;2083669;28;4138;-34
2021/04/16 02:38:54;;;;;;;;;;;;;;;20.96;48.85;102023.69;2084928;28;3861;-32
2021/04/16 02:39:55;;;;;;;;;;;;;;;20.96;49.04;102023.69;2083914;28;3966;-30
2021/04/16 02:40:55;;;;;;;;;;;;;;;20.95;49.02;102022.84;2084225;28;4018;-33
2021/04/16 02:41:56;;;;;;;;;;;;;;;20.96;48.86;102020.84;2084640;28;4036;-33
2021/04/16 02:42:57;;;;;;;;;;;;;;;20.96;48.96;102029.38;2084315;28;4035;-30
2021/04/16 02:43:58;;;;;;;;;;;;;;;20.96;48.85;102020.84;2085336;28;3724;-35
2021/04/16 02:44:58;;;;;;;;;;;;;;;20.96;48.91;102023.69;2085017;28;3878;-31
2021/04/16 02:45:59;;;;;;;;;;;;;;;20.96;48.82;102020.84;2081860;28;3933;-34
2021/04/16 02:47:00;;;;;;;;;;;;;;;20.96;49.03;102024.53;2084912;28;3948;-31
2021/04/16 02:48:01;;;;;;;;;;;;;;;20.95;48.99;102022.84;2082624;28;3857;-32
2021/04/16 02:49:02;;;;;;;;;;;;;;;20.96;49.06;102020.84;2084239;28;3888;-32
2021/04/16 02:50:03;;;;;;;;;;;;;;;20.96;48.89;102018.00;2084750;28;3846;-33
2021/04/16 02:51:03;;;;;;;;;;;;;;;20.96;49.08;102018.81;2085198;28;4073;-32
2021/04/16 02:52:04;;;;;;;;;;;;;;;20.95;48.91;102019.13;2084331;28;4040;-31
2021/04/16 02:53:05;;;;;;;;;;;;;;;20.96;49.04;102012.31;2083938;28;3876;-31
2021/04/16 02:54:06;;;;;;;;;;;;;;;20.96;48.99;102018.00;2082901;28;3940;-33
2021/04/16 02:55:06;;;;;;;;;;;;;;;20.94;48.15;102014.63;2084077;28;3851;-32
2021/04/16 02:56:07;;;;;;;;;;;;;;;20.84;46.82;102012.88;2084736;28;4170;-31
2021/04/16 02:57:08;;;;;;;;;;;;;;;20.75;45.92;102014.81;2084472;28;3793;-33
2021/04/16 02:58:08;;;;;;;;;;;;;;;20.64;43.78;102012.22;2083857;28;3888;-32
2021/04/16 02:59:09;;;;;;;;;;;;;;;20.54;42.96;102012.47;2084877;28;3986;-34
2021/04/16 03:00:10;;;;;;;;;;;;;;;20.50;42.32;102011.38;2085041;28;3861;-30
2021/04/16 03:01:11;;;;;;;;;;;;;;;20.45;42.05;102001.00;2085011;28;3965;-35
2021/04/16 03:02:11;;;;;;;;;;;;;;;20.43;41.45;102005.31;2084163;28;3963;-33
2021/04/16 03:03:15;;;;;;;;;;;;;;;20.36;40.48;102005.75;2083869;28;3931;-32
2021/04/16 03:04:15;;;;;;;;;;;;;;;20.34;40.17;102013.75;2084644;28;3840;-31
2021/04/16 03:05:16;;;;;;;;;;;;;;;20.31;39.70;102007.88;2083915;28;3827;-32
2021/04/16 03:06:17;;;;;;;;;;;;;;;20.28;40.11;102002.81;2084468;28;4027;-31
2021/04/16 03:07:18;;;;;;;;;;;;;;;20.32;41.30;102007.56;2085449;28;3852;-36
2021/04/16 03:08:19;;;;;;;;;;;;;;;20.40;42.12;102003.97;2080878;28;4008;-31
2021/04/16 03:09:19;;;;;;;;;;;;;;;20.44;42.55;101999.31;2084060;28;4013;-34
2021/04/16 03:10:20;;;;;;;;;;;;;;;20.49;42.96;101998.34;2084356;28;3833;-31
2021/04/16 03:11:21;;;;;;;;;;;;;;;20.52;43.17;102000.53;2084546;28;4005;-32
2021/04/16 03:12:21;;;;;;;;;;;;;;;20.55;43.36;101994.25;2084389;28;3907;-33
2021/04/16 03:13:22;;;;;;;;;;;;;;;;;;2083653;28;3818;-39
2021/04/16 03:14:23;;;;;;;;;;;;;;;20.60;43.62;102007.50;2083839;28;3967;-34
2021/04/16 03:15:24;;;;;;;;;;;;;;;20.61;43.77;101998.63;2083081;28;5059;-38
2021/04/16 03:16:26;;;;;;;;;;;;;;;20.61;43.77;102000.66;2080594;28;4010;-32
2021/04/16 03:17:27;;;;;;;;;;;;;;;20.62;44.06;101996.63;2084532;28;4022;-30
2021/04/16 03:18:28;;;;;;;;;;;;;;;20.63;43.99;102004.84;2083489;28;3909;-32
2021/04/16 03:19:29;;;;;;;;;;;;;;;20.64;44.02;102000.00;2083940;28;4198;-32
2021/04/16 03:20:30;;;;;;;;;;;;;;;20.65;44.06;102008.22;2084990;28;4058;-31
2021/04/16 03:21:30;;;;;;;;;;;;;;;20.66;44.18;102007.06;2085109;28;4110;-32
2021/04/16 03:22:31;;;;;;;;;;;;;;;20.66;44.38;102004.22;2084099;28;3865;-31
2021/04/16 03:23:32;;;;;;;;;;;;;;;20.66;44.39;102009.91;2084032;28;3988;-34
2021/04/16 03:24:33;;;;;;;;;;;;;;;20.67;44.45;102005.88;2084957;28;3914;-32
2021/04/16 03:25:34;;;;;;;;;;;;;;;20.67;44.40;102000.19;2084662;28;4286;-32
2021/04/16 03:26:35;;;;;;;;;;;;;;;20.67;44.38;102011.56;2083990;28;4243;-32
2021/04/16 03:27:36;;;;;;;;;;;;;;;20.68;44.47;102012.44;2084778;28;3863;-34
2021/04/16 03:28:37;;;;;;;;;;;;;;;20.69;44.66;102011.25;2082804;28;3954;-32
2021/04/16 03:29:37;;;;;;;;;;;;;;;20.69;44.66;101997.88;2083171;28;4020;-35
2021/04/16 03:30:38;;;;;;;;;;;;;;;20.69;44.57;102005.56;2085156;28;4044;-36
2021/04/16 03:31:39;;;;;;;;;;;;;;;20.69;44.72;102000.72;2081711;28;3963;-34
2021/04/16 03:32:40;;;;;;;;;;;;;;;20.70;44.56;102007.22;2083705;28;3858;-31
2021/04/16 03:33:41;;;;;;;;;;;;;;;20.72;44.83;102009.78;2082639;28;3888;-33
2021/04/16 03:34:42;;;;;;;;;;;;;;;20.72;44.73;102009.78;2084377;28;4052;-35
2021/04/16 03:35:43;;;;;;;;;;;;;;;20.71;44.81;102014.63;2084511;28;4061;-34
2021/04/16 03:36:44;;;;;;;;;;;;;;;20.72;44.83;102006.94;2083248;28;3795;-34
2021/04/16 03:37:45;;;;;;;;;;;;;;;20.71;44.89;102006.09;2084058;28;3941;-34
2021/04/16 03:38:45;;;;;;;;;;;;;;;20.72;44.96;102004.91;2084848;28;3876;-32
2021/04/16 03:39:46;;;;;;;;;;;;;;;20.73;44.93;102012.31;2084323;28;4871;-30
2021/04/16 03:40:47;;;;;;;;;;;;;;;20.74;44.83;102016.00;2084455;28;4087;-34
2021/04/16 03:41:48;;;;;;;;;;;;;;;20.73;45.10;102018.00;2083449;28;3903;-31
2021/04/16 03:42:48;;;;;;;;;;;;;;;20.74;45.07;102013.16;2086810;28;4028;-32
2021/04/16 03:43:49;;;;;;;;;;;;;;;20.74;45.13;102016.81;2085462;28;3888;-32
2021/04/16 03:44:50;;;;;;;;;;;;;;;20.75;45.12;102020.50;2086673;28;3869;-32
2021/04/16 03:45:50;;;;;;;;;;;;;;;20.75;45.19;102017.66;2085215;28;4078;-31
2021/04/16 03:46:51;;;;;;;;;;;;;;;20.74;45.09;102019.66;2084979;28;4090;-34
2021/04/16 03:47:52;;;;;;;;;;;;;;;20.76;45.12;102025.00;2087169;28;4112;-32
2021/04/16 03:48:53;;;;;;;;;;;;;;;20.76;45.27;102019.31;2085475;28;4033;-38
2021/04/16 03:49:54;;;;;;;;;;;;;;;20.76;45.17;102023.03;2085747;28;3877;-32
2021/04/16 03:50:55;;;;;;;;;;;;;;;20.76;45.21;102014.50;2086852;28;4013;-31
2021/04/16 03:51:56;;;;;;;;;;;;;;;20.76;45.28;102014.50;2084249;28;4050;-35
2021/04/16 03:52:57;;;;;;;;;;;;;;;20.76;45.28;102013.63;2084218;28;3885;-35
2021/04/16 03:53:58;;;;;;;;;;;;;;;20.77;45.50;102015.34;2085236;28;4004;-34
2021/04/16 03:54:59;;;;;;;;;;;;;;;20.77;45.35;102015.34;2085392;28;3904;-37
2021/04/16 03:56:00;;;;;;;;;;;;;;;20.78;45.32;102017.84;2086398;28;4136;-30
2021/04/16 03:57:00;;;;;;;;;;;;;;;20.78;45.53;102012.16;2085864;28;4231;-35
2021/04/16 03:58:01;;;;;;;;;;;;;;;20.78;45.41;102015.00;2085585;28;3865;-34
2021/04/16 03:59:02;;;;;;;;;;;;;;;20.79;45.53;102018.72;2085234;28;4019;-29
2021/04/16 04:00:03;;;;;;;;;;;;;;;20.79;45.54;102013.84;2085294;28;3870;-29
2021/04/16 04:01:04;;;;;;;;;;;;;;;20.80;45.60;102018.38;2084146;28;4058;-36
2021/04/16 04:02:04;;;;;;;;;;;;;;;20.80;45.63;102014.69;2086109;28;4234;-33
2021/04/16 04:03:05;;;;;;;;;;;;;;;20.80;45.71;102017.53;2085678;28;3869;-33
2021/04/16 04:04:06;;;;;;;;;;;;;;;20.81;45.71;102013.50;2084892;28;4078;-33
2021/04/16 04:05:07;;;;;;;;;;;;;;;20.80;45.67;102015.53;2085859;28;4022;-33
2021/04/16 04:06:08;;;;;;;;;;;;;;;20.80;45.71;102015.53;2085850;28;4071;-36
2021/04/16 04:07:09;;;;;;;;;;;;;;;20.80;45.85;102007.00;2085605;28;3966;-35
2021/04/16 04:08:10;;;;;;;;;;;;;;;20.81;45.89;102014.34;2083853;28;4126;-34
2021/04/16 04:09:11;;;;;;;;;;;;;;;20.81;45.95;102017.19;2085959;28;4043;-32
2021/04/16 04:10:12;;;;;;;;;;;;;;;20.81;45.85;102011.50;2086203;28;4022;-30
2021/04/16 04:11:12;;;;;;;;;;;;;;;20.82;46.00;102012.38;2084919;28;4016;-29
2021/04/16 04:12:13;;;;;;;;;;;;;;;20.82;45.94;102018.91;2086398;28;4032;-32
2021/04/16 04:13:14;;;;;;;;;;;;;;;20.83;46.11;102019.72;2085652;28;4073;-30
2021/04/16 04:14:15;;;;;;;;;;;;;;;20.83;46.13;102016.88;2085349;28;3847;-34
2021/04/16 04:15:15;;;;;;;;;;;;;;;20.81;46.11;102017.19;2086444;28;3973;-30
2021/04/16 04:16:16;;;;;;;;;;;;;;;20.82;46.01;102018.06;2083649;28;3998;-33
2021/04/16 04:17:17;;;;;;;;;;;;;;;20.82;46.10;102015.22;2086234;28;4057;-31
2021/04/16 04:18:18;;;;;;;;;;;;;;;20.82;46.15;102016.06;2086439;28;4024;-33
2021/04/16 04:19:20;;;;;;;;;;;;;;;20.81;46.14;102014.34;2084192;28;4049;-32
2021/04/16 04:20:20;;;;;;;;;;;;;;;20.82;46.15;102018.06;2085067;28;4024;-33
2021/04/16 04:21:21;;;;;;;;;;;;;;;20.82;46.24;102015.22;2085441;28;4048;-30
2021/04/16 04:22:22;;;;;;;;;;;;;;;20.83;46.22;102014.03;2086191;28;3986;-30
2021/04/16 04:23:22;;;;;;;;;;;;;;;20.82;46.24;102013.22;2082037;28;3835;-32
2021/04/16 04:24:23;;;;;;;;;;;;;;;20.82;46.27;102016.06;2085241;28;3824;-32
2021/04/16 04:25:24;;;;;;;;;;;;;;;20.83;46.39;102016.88;2083506;28;4657;-34
2021/04/16 04:26:25;;;;;;;;;;;;;;;20.82;46.39;102007.50;2085730;28;3893;-32
2021/04/16 04:27:25;;;;;;;;;;;;;;;20.83;46.43;102026.25;2085931;28;3854;-33
2021/04/16 04:28:26;;;;;;;;;;;;;;;20.84;46.55;102027.94;2085627;28;3892;-31
2021/04/16 04:29:27;;;;;;;;;;;;;;;20.84;46.32;102016.56;2084183;28;4118;-34
2021/04/16 04:30:28;;;;;;;;;;;;;;;20.84;46.43;102025.09;2085727;28;4052;-31
2021/04/16 04:31:29;;;;;;;;;;;;;;;20.84;46.48;102027.09;2082644;28;3831;-32
2021/04/16 04:32:30;;;;;;;;;;;;;;;20.84;46.51;102027.94;2085510;28;3877;-31
2021/04/16 04:33:31;;;;;;;;;;;;;;;20.85;46.59;102026.78;2085460;28;3886;-32
2021/04/16 04:34:32;;;;;;;;;;;;;;;20.85;46.51;102023.09;2084310;28;3929;-30
2021/04/16 04:35:33;;;;;;;;;;;;;;;20.85;46.61;102028.78;2085956;28;3863;-32
2021/04/16 04:36:34;;;;;;;;;;;;;;;20.85;46.61;102028.78;2084776;28;3906;-30
2021/04/16 04:37:35;;;;;;;;;;;;;;;20.84;46.61;102022.25;2084937;28;4270;-34
2021/04/16 04:38:36;;;;;;;;;;;;;;;20.86;46.70;102036.16;2084881;28;4176;-31
2021/04/16 04:39:37;;;;;;;;;;;;;;;20.86;46.60;102030.47;2085251;28;4129;-31
2021/04/16 04:40:37;;;;;;;;;;;;;;;20.86;46.62;102019.06;2085052;28;4063;-31
2021/04/16 04:41:38;;;;;;;;;;;;;;;20.86;46.60;102021.94;2083413;28;4032;-32
2021/04/16 04:42:39;;;;;;;;;;;;;;;20.85;46.60;102023.94;2085425;28;4046;-31
2021/04/16 04:43:40;;;;;;;;;;;;;;;20.86;46.70;102028.44;2085663;28;3932;-30
2021/04/16 04:44:40;;;;;;;;;;;;;;;20.86;46.74;102024.78;2085821;28;4187;-31
2021/04/16 04:45:41;;;;;;;;;;;;;;;20.86;46.66;102028.44;2084456;28;4047;-33
2021/04/16 04:46:42;;;;;;;;;;;;;;;20.85;46.61;102028.78;2084837;28;3867;-34
2021/04/16 04:47:43;;;;;;;;;;;;;;;20.86;46.65;102024.78;2084832;28;3920;-33
2021/04/16 04:48:44;;;;;;;;;;;;;;;20.85;46.60;102023.94;2085901;28;4255;-31
2021/04/16 04:49:45;;;;;;;;;;;;;;;20.87;46.66;102026.47;2084674;28;4064;-33
2021/04/16 04:50:46;;;;;;;;;;;;;;;20.86;46.73;102024.78;2085457;28;3882;-37
2021/04/16 04:51:46;;;;;;;;;;;;;;;20.86;46.67;102024.78;2085667;28;4057;-33
2021/04/16 04:52:47;;;;;;;;;;;;;;;20.85;46.65;102023.94;2084213;28;4039;-31
2021/04/16 04:53:48;;;;;;;;;;;;;;;20.86;46.81;102027.63;2083289;28;3884;-32
2021/04/16 04:54:48;;;;;;;;;;;;;;;20.86;46.91;102030.47;2084581;28;4063;-30
2021/04/16 04:55:49;;;;;;;;;;;;;;;20.86;46.90;102031.28;2085739;28;4174;-34
2021/04/16 04:56:50;;;;;;;;;;;;;;;20.86;46.80;102027.63;2085904;28;3865;-29
2021/04/16 04:57:51;;;;;;;;;;;;;;;20.86;46.85;102024.78;2085892;28;3862;-33
2021/04/16 04:58:51;;;;;;;;;;;;;;;20.86;46.84;102031.28;2083959;28;3881;-31
2021/04/16 04:59:52;;;;;;;;;;;;;;;20.86;46.89;102031.28;2084732;28;4079;-33
2021/04/16 05:00:53;;;;;;;;;;;;;;;20.86;46.93;102025.59;2085921;28;4074;-32
2021/04/16 05:01:54;;;;;;;;;;;;;;;20.86;47.04;102024.78;2084533;28;3897;-30
2021/04/16 05:02:55;;;;;;;;;;;;;;;20.86;47.00;102025.59;2082084;28;4060;-32
2021/04/16 05:03:56;;;;;;;;;;;;;;;20.86;47.10;102028.44;2085160;28;3899;-31
2021/04/16 05:04:56;;;;;;;;;;;;;;;20.87;47.14;102030.16;2085545;28;3832;-33
2021/04/16 05:05:57;;;;;;;;;;;;;;;20.87;46.96;102024.47;2084692;28;3941;-30
2021/04/16 05:06:58;;;;;;;;;;;;;;;20.86;47.09;102027.63;2084531;28;4106;-33
2021/04/16 05:07:59;;;;;;;;;;;;;;;20.86;47.26;102028.44;2086110;28;4002;-31
2021/04/16 05:08:59;;;;;;;;;;;;;;;20.80;45.27;102032.59;2085014;28;4045;-33
2021/04/16 05:10:00;;;;;;;;;;;;;;;20.69;43.53;102031.16;2085743;28;3838;-29
2021/04/16 05:11:01;;;;;;;;;;;;;;;20.57;43.06;102030.91;2085489;28;4037;-31
2021/04/16 05:12:02;;;;;;;;;;;;;;;20.53;42.62;102029.81;2085397;28;4218;-31
2021/04/16 05:13:02;;;;;;;;;;;;;;;20.44;40.99;102038.25;2084428;28;4487;-33
2021/04/16 05:14:03;;;;;;;;;;;;;;;20.37;40.46;102032.16;2084087;28;3873;-33
2021/04/16 05:15:04;;;;;;;;;;;;;;;20.40;41.94;102032.38;2085447;28;3867;-32
2021/04/16 05:16:05;;;;;;;;;;;;;;;20.48;42.76;102030.75;2085144;28;3829;-31
2021/04/16 05:17:05;;;;;;;;;;;;;;;20.54;43.04;102028.69;2085093;28;4093;-31